Time;durP1;ratioP1;P1;durP2;ratioP2;P2;SDS_P1;SDS_P2;PMS_P1;PMS_P2;Temp;Humidity;BMP_temperature;BMP_pressure;BME280_temperature;BME280_humidity;BME280_pressure;Samples;Min_cycle;Max_cycle;Signal;HPM_P1;HPM_P2
2023/07/27 00:01:56;;;;;;;3.88;1.80;;;;;;;15.07;100.00;99377.19;5005712;28;20034;-89
2023/07/27 00:04:22;;;;;;;3.05;1.50;;;;;;;15.09;100.00;99381.28;4996014;28;20087;-89
2023/07/27 00:06:48;;;;;;;1.88;1.17;;;;;;;15.12;100.00;99372.41;5013142;28;20029;-89
2023/07/27 00:09:15;;;;;;;1.35;1.10;;;;;;;15.16;100.00;99373.72;5007143;28;20108;-89
2023/07/27 00:11:40;;;;;;;4.45;1.20;;;;;;;15.15;100.00;99369.50;5002601;28;20041;-89
2023/07/27 00:14:05;;;;;;;7.28;1.38;;;;;;;15.19;100.00;99369.06;4995102;28;20021;-89
2023/07/27 00:16:31;;;;;;;2.38;0.88;;;;;;;15.17;100.00;99364.97;4998625;28;20221;-89
2023/07/27 00:18:56;;;;;;;2.33;1.52;;;;;;;15.20;100.00;99373.31;5011727;28;20014;-89
2023/07/27 00:21:22;;;;;;;2.42;1.15;;;;;;;15.18;100.00;99366.59;5011807;28;20041;-89
2023/07/27 00:23:47;;;;;;;6.10;1.38;;;;;;;15.15;100.00;99356.50;4996041;28;20027;-88
2023/07/27 00:26:12;;;;;;;4.28;1.00;;;;;;;15.21;100.00;99350.72;4993783;28;20085;-89
2023/07/27 00:28:38;;;;;;;3.33;0.90;;;;;;;15.24;100.00;99360.84;4980018;28;20026;-91
2023/07/27 00:31:03;;;;;;;2.30;0.90;;;;;;;15.21;100.00;99358.50;4993684;28;20050;-90
2023/07/27 00:33:28;;;;;;;4.18;1.00;;;;;;;15.24;100.00;99350.44;4993307;28;20022;-89
2023/07/27 00:35:58;;;;;;;2.05;0.73;;;;;;;15.24;100.00;99340.06;4993363;28;20054;-90
2023/07/27 00:38:24;;;;;;;1.35;0.95;;;;;;;15.24;100.00;99345.25;4993402;28;20027;-90
2023/07/27 00:40:50;;;;;;;1.23;0.60;;;;;;;15.19;100.00;99342.25;4992471;28;20031;-90
2023/07/27 00:43:15;;;;;;;5.60;0.80;;;;;;;15.24;100.00;99340.06;4993269;28;20042;-90
2023/07/27 00:45:41;;;;;;;1.73;0.52;;;;;;;15.25;100.00;99338.25;4993368;28;20389;-90
2023/07/27 00:48:08;;;;;;;2.33;0.88;;;;;;;15.24;100.00;99345.25;4993145;28;20030;-90
2023/07/27 00:50:38;;;;;;;2.25;0.70;;;;;;;15.20;100.00;99329.09;4975529;28;20022;-90
2023/07/27 00:53:06;;;;;;;1.15;0.60;;;;;;;15.29;100.00;99337.84;4992320;28;20033;-90
2023/07/27 00:55:32;;;;;;;1.70;0.77;;;;;;;15.34;100.00;99335.63;4993040;28;20068;-90
2023/07/27 00:57:58;;;;;;;2.30;0.90;;;;;;;15.29;100.00;99324.84;4993060;28;20462;-90
2023/07/27 01:00:25;;;;;;;3.50;0.90;;;;;;;15.35;100.00;99324.25;4993023;28;20026;-90
2023/07/27 01:02:51;;;;;;;3.42;1.08;;;;;;;15.26;100.00;99317.31;4992878;28;20058;-90
2023/07/27 01:05:16;;;;;;;2.53;1.00;;;;;;;15.25;100.00;99315.69;4992998;28;20058;-90
2023/07/27 01:07:42;;;;;;;3.13;0.98;;;;;;;15.23;100.00;99320.19;4992937;28;20718;-90
2023/07/27 01:10:07;;;;;;;3.63;0.90;;;;;;;15.28;100.00;99310.19;4992765;28;20028;-90
2023/07/27 01:12:48;;;;;;;2.40;1.00;;;;;;;15.33;100.00;99317.53;4992710;28;20026;-90
2023/07/27 01:15:17;;;;;;;2.90;1.02;;;;;;;15.34;100.00;99314.81;4992618;28;20037;-90
2023/07/27 01:18:04;;;;;;;5.22;1.05;;;;;;;15.30;100.00;99304.84;4992930;28;20034;-90
2023/07/27 01:21:09;;;;;;;4.88;1.20;;;;;;;15.39;100.00;99307.38;4992764;28;20026;-90
2023/07/27 01:24:00;;;;;;;2.40;0.80;;;;;;;15.43;100.00;99301.88;4992233;28;20065;-90
2023/07/27 01:27:03;;;;;;;3.17;0.80;;;;;;;15.49;100.00;99304.72;4957816;28;20056;-90
2023/07/27 01:29:37;;;;;;;1.80;0.90;;;;;;;15.34;100.00;99288.00;4972888;28;20045;-91
2023/07/27 01:32:04;;;;;;;3.10;0.90;;;;;;;15.35;100.00;99298.25;4972921;28;20101;-90
2023/07/27 01:34:32;;;;;;;2.50;0.90;;;;;;;15.51;100.00;99294.16;4972846;28;20113;-90
2023/07/27 01:37:04;;;;;;;2.83;1.02;;;;;;;15.43;100.00;99287.09;4973000;28;20035;-90
2023/07/27 01:39:35;;;;;;;;;;;;;;;15.43;100.00;99296.69;4959438;28;20031;-91
2023/07/27 01:42:02;;;;;;;4.60;0.60;;;;;;;15.40;100.00;99285.59;4992317;28;19914;-90
2023/07/27 01:44:29;;;;;;;3.53;1.08;;;;;;;15.44;100.00;99283.56;4992293;28;20472;-90
2023/07/27 01:46:56;;;;;;;1.90;0.60;;;;;;;15.37;100.00;99272.91;4992279;28;20038;-90
2023/07/27 01:49:23;;;;;;;1.52;0.80;;;;;;;15.37;100.00;99285.91;4992316;28;20022;-91
2023/07/27 01:51:49;;;;;;;2.53;0.63;;;;;;;15.35;100.00;99274.03;4992219;28;20061;-90
2023/07/27 01:54:15;;;;;;;4.50;0.70;;;;;;;15.40;100.00;99272.63;4991604;28;20034;-90
2023/07/27 01:56:41;;;;;;;4.85;0.85;;;;;;;15.38;100.00;99281.53;4992467;28;20022;-90
2023/07/27 01:59:08;;;;;;;0.98;0.60;;;;;;;15.39;100.00;99272.78;4992286;28;20518;-90
2023/07/27 02:01:35;;;;;;;4.47;0.68;;;;;;;15.42;100.00;99272.47;4992268;28;20018;-90
2023/07/27 02:04:01;;;;;;;2.05;0.70;;;;;;;15.47;100.00;99272.84;4991960;28;20054;-90
2023/07/27 02:06:26;;;;;;;0.82;0.50;;;;;;;15.45;100.00;99268.75;4992202;28;20190;-90
2023/07/27 02:08:52;;;;;;;1.00;0.50;;;;;;;15.48;100.00;99263.25;4991480;28;20030;-90
2023/07/27 02:11:19;;;;;;;1.17;0.35;;;;;;;15.60;100.00;99256.84;4991963;28;20077;-90
2023/07/27 02:13:57;;;;;;;0.98;0.50;;;;;;;15.54;100.00;99260.06;4992205;28;20105;-90
2023/07/27 02:16:43;;;;;;;2.00;0.40;;;;;;;15.52;100.00;99254.19;4974623;28;20034;-90
2023/07/27 02:19:12;;;;;;;1.40;0.35;;;;;;;15.57;100.00;99262.38;4974670;28;20138;-90
2023/07/27 02:21:38;;;;;;;1.98;0.50;;;;;;;15.65;100.00;99257.22;4991895;28;20053;-90
2023/07/27 02:24:04;;;;;;;1.23;0.40;;;;;;;15.62;100.00;99252.34;4992756;28;20481;-90
2023/07/27 02:26:30;;;;;;;4.03;0.47;;;;;;;15.56;100.00;99258.16;4991844;28;20033;-91
2023/07/27 02:28:56;;;;;;;4.07;0.63;;;;;;;15.50;100.00;99256.94;4991880;28;20037;-90
2023/07/27 02:31:23;;;;;;;0.90;0.60;;;;;;;15.50;100.00;99251.75;4991979;28;20027;-90
2023/07/27 02:33:48;;;;;;;8.00;1.15;;;;;;;15.54;100.00;99247.06;4991491;28;20165;-90
2023/07/27 02:36:14;;;;;;;0.47;0.40;;;;;;;15.51;100.00;99247.34;4992205;28;20101;-90
2023/07/27 02:38:39;;;;;;;0.93;0.60;;;;;;;15.55;100.00;99244.31;4977939;28;20030;-90
2023/07/27 02:41:04;;;;;;;1.30;0.30;;;;;;;15.57;100.00;99239.78;4995510;28;20030;-90
2023/07/27 02:43:30;;;;;;;0.75;0.40;;;;;;;15.56;100.00;99237.34;4995259;28;20025;-90
2023/07/27 02:45:59;;;;;;;1.33;0.50;;;;;;;15.57;100.00;99244.97;4995315;28;20035;-90
2023/07/27 02:48:25;;;;;;;2.58;0.60;;;;;;;15.55;100.00;99239.09;4994520;28;20026;-90
2023/07/27 02:50:51;;;;;;;4.38;1.08;;;;;;;15.56;100.00;99245.16;4977576;28;20045;-90
2023/07/27 02:53:17;;;;;;;1.00;0.50;;;;;;;15.61;100.00;99238.50;4995202;28;20164;-90
2023/07/27 02:55:42;;;;;;;3.40;0.50;;;;;;;15.62;100.00;99228.94;4994885;28;20112;-90
2023/07/27 02:58:08;;;;;;;2.15;0.30;;;;;;;15.59;100.00;99221.44;4995042;28;20034;-90
2023/07/27 03:00:33;;;;;;;0.50;0.40;;;;;;;15.54;100.00;99227.06;4995301;28;20484;-90
2023/07/27 03:03:00;;;;;;;4.10;0.60;;;;;;;15.55;100.00;99225.28;4995010;28;20041;-90
2023/07/27 03:05:26;;;;;;;2.45;0.50;;;;;;;15.55;100.00;99218.28;4977561;28;20037;-90
2023/07/27 03:07:52;;;;;;;3.50;0.40;;;;;;;15.50;100.00;99215.34;4977422;28;20072;-90
2023/07/27 03:10:17;;;;;;;1.50;0.50;;;;;;;15.51;100.00;99216.13;4977570;28;20026;-90
2023/07/27 03:12:42;;;;;;;0.95;0.50;;;;;;;15.51;100.00;99210.94;4994774;28;20014;-90
2023/07/27 03:15:08;;;;;;;0.77;0.52;;;;;;;15.56;100.00;99213.94;4994609;28;20041;-90
2023/07/27 03:17:33;;;;;;;3.03;0.60;;;;;;;15.57;100.00;99211.16;4994072;28;20085;-90
2023/07/27 03:19:59;;;;;;;3.90;0.65;;;;;;;15.60;100.00;99204.84;4994677;28;20022;-90
2023/07/27 03:22:24;;;;;;;1.80;0.50;;;;;;;15.58;100.00;99214.56;4994782;28;20054;-90
2023/07/27 03:24:50;;;;;;;0.30;0.30;;;;;;;15.63;100.00;99214.97;4994661;28;20022;-90
2023/07/27 03:27:15;;;;;;;1.67;0.43;;;;;;;15.59;100.00;99205.81;4994456;28;20488;-90
2023/07/27 03:29:40;;;;;;;2.65;0.60;;;;;;;15.66;100.00;99217.25;4994487;28;20052;-90
2023/07/27 03:32:06;;;;;;;1.65;0.40;;;;;;;15.61;100.00;99212.50;4993775;28;20499;-90
2023/07/27 03:34:31;;;;;;;3.22;0.30;;;;;;;15.68;100.00;99212.72;4994131;28;20387;-90
2023/07/27 03:36:57;;;;;;;0.73;0.50;;;;;;;15.68;100.00;99207.53;4977012;28;20540;-90
2023/07/27 03:39:22;;;;;;;1.15;0.30;;;;;;;15.72;100.00;99208.06;4976892;28;20484;-91
2023/07/27 03:41:47;;;;;;;1.80;0.68;;;;;;;15.81;100.00;99213.16;4994368;28;20480;-90
2023/07/27 03:44:14;;;;;;;0.73;0.43;;;;;;;15.76;100.00;99205.00;4976562;28;20515;-90
2023/07/27 03:46:39;;;;;;;0.30;0.30;;;;;;;15.82;100.00;99203.56;4976514;28;20447;-90
2023/07/27 03:49:05;;;;;;;13.73;0.55;;;;;;;15.76;100.00;99212.81;4992764;28;20050;-90
2023/07/27 03:51:30;;;;;;;1.48;0.30;;;;;;;15.71;100.00;99207.25;4994085;28;20428;-90
2023/07/27 03:53:55;;;;;;;1.02;0.30;;;;;;;15.67;100.00;99205.88;4993941;28;20477;-90
2023/07/27 03:56:21;;;;;;;4.47;0.55;;;;;;;15.64;100.00;99206.19;4992904;28;20074;-90
2023/07/27 03:58:46;;;;;;;3.60;0.22;;;;;;;15.79;100.00;99207.28;4994202;28;20121;-90
2023/07/27 04:01:11;;;;;;;0.73;0.50;;;;;;;15.77;100.00;99200.63;4994108;28;20030;-90
2023/07/27 04:03:37;;;;;;;0.60;0.28;;;;;;;15.78;100.00;99207.47;4993794;28;20121;-90
2023/07/27 04:06:02;;;;;;;1.02;0.32;;;;;;;15.84;100.00;99205.06;4993645;28;20142;-90
2023/07/27 04:08:27;;;;;;;0.32;0.20;;;;;;;15.74;100.00;99206.94;4976381;28;20117;-90
2023/07/27 04:10:53;;;;;;;1.55;0.40;;;;;;;15.74;100.00;99212.16;4993810;28;20046;-90
2023/07/27 04:13:18;;;;;;;0.20;0.20;;;;;;;15.80;100.00;99205.50;4993948;28;20088;-90
2023/07/27 04:15:43;;;;;;;1.90;0.30;;;;;;;15.76;100.00;99207.63;4993593;28;20392;-91
2023/07/27 04:18:09;;;;;;;1.02;0.25;;;;;;;15.83;100.00;99210.44;4993786;28;20023;-90
2023/07/27 04:20:34;;;;;;;1.35;0.20;;;;;;;15.81;100.00;99210.56;4993683;28;20022;-90
2023/07/27 04:23:00;;;;;;;2.10;0.43;;;;;;;15.73;100.00;99217.50;4993491;28;20084;-90
2023/07/27 04:25:25;;;;;;;3.05;0.50;;;;;;;15.73;100.00;99218.31;4992818;28;20068;-91
2023/07/27 04:27:51;;;;;;;1.70;0.40;;;;;;;15.70;100.00;99221.22;4993251;28;20064;-91
2023/07/27 04:30:17;;;;;;;0.63;0.50;;;;;;;15.70;100.00;99216.00;4993351;28;20065;-90
2023/07/27 04:32:43;;;;;;;1.70;0.47;;;;;;;15.76;100.00;99215.41;4993521;28;20030;-91
2023/07/27 04:35:08;;;;;;;0.80;0.30;;;;;;;15.77;100.00;99217.03;4975738;28;20030;-91
2023/07/27 04:37:34;;;;;;;2.20;0.47;;;;;;;15.81;100.00;99214.97;4993264;28;20381;-91
2023/07/27 04:39:59;;;;;;;6.60;0.65;;;;;;;15.88;100.00;99208.19;4993239;28;20520;-91
2023/07/27 04:42:24;;;;;;;1.00;0.25;;;;;;;15.94;100.00;99211.94;4992161;28;20048;-90
2023/07/27 04:44:50;;;;;;;2.33;0.40;;;;;;;15.86;100.00;99214.50;4992997;28;20030;-90
2023/07/27 04:47:15;;;;;;;3.90;0.40;;;;;;;15.82;100.00;99206.19;4993001;28;20030;-91
2023/07/27 04:49:40;;;;;;;0.65;0.20;;;;;;;15.89;100.00;99209.00;4992960;28;20033;-91
2023/07/27 04:52:06;;;;;;;0.20;0.20;;;;;;;15.83;100.00;99213.03;4993224;28;20027;-91
2023/07/27 04:54:31;;;;;;;1.65;0.40;;;;;;;15.81;100.00;99213.16;4992196;28;20472;-91
2023/07/27 04:56:57;;;;;;;2.05;0.20;;;;;;;15.83;100.00;99213.03;4992726;28;20026;-91
2023/07/27 04:59:22;;;;;;;0.65;0.30;;;;;;;15.86;100.00;99210.13;4992753;28;20074;-91
2023/07/27 05:01:47;;;;;;;0.55;0.30;;;;;;;15.88;100.00;99212.56;4992082;28;20023;-91
2023/07/27 05:04:13;;;;;;;1.95;0.10;;;;;;;15.88;100.00;99212.56;4992774;28;20028;-91
2023/07/27 05:06:42;;;;;;;0.52;0.30;;;;;;;15.89;100.00;99214.19;4992773;28;20022;-91
2023/07/27 05:09:07;;;;;;;0.63;0.25;;;;;;;15.89;100.00;99216.81;4992602;28;20026;-91
2023/07/27 05:11:33;;;;;;;0.10;0.10;;;;;;;15.89;100.00;99216.81;4992622;28;20030;-91
2023/07/27 05:13:58;;;;;;;3.17;0.20;;;;;;;15.93;100.00;99221.56;4992641;28;20472;-90
2023/07/27 05:16:24;;;;;;;0.10;0.10;;;;;;;15.93;100.00;99220.75;4992672;28;20050;-91
2023/07/27 05:18:49;;;;;;;0.35;0.13;;;;;;;15.98;100.00;99234.09;4975238;28;20034;-91
2023/07/27 05:21:14;;;;;;;0.20;0.10;;;;;;;15.99;100.00;99215.72;4992630;28;20027;-91
2023/07/27 05:23:40;;;;;;;0.10;0.10;;;;;;;15.98;100.00;99223.69;4992452;28;20400;-91
2023/07/27 05:26:06;;;;;;;0.93;0.17;;;;;;;16.01;100.00;99216.38;4991764;28;20388;-91
2023/07/27 05:28:31;;;;;;;2.90;0.10;;;;;;;16.02;100.00;99220.66;4992760;28;20029;-91
2023/07/27 05:30:56;;;;;;;0.13;0.00;;;;;;;16.03;100.00;99213.66;4992714;28;20424;-91
2023/07/27 05:33:23;;;;;;;0.10;0.10;;;;;;;16.14;100.00;99223.81;4992381;28;20026;-91
2023/07/27 05:35:48;;;;;;;1.67;0.10;;;;;;;16.24;100.00;99221.06;4992406;28;20054;-91
2023/07/27 05:38:15;;;;;;;0.82;0.10;;;;;;;16.25;100.00;99226.13;4992500;28;20421;-92
2023/07/27 05:40:40;;;;;;;0.20;0.00;;;;;;;16.24;100.00;99221.91;4992205;28;20118;-91
2023/07/27 05:43:06;;;;;;;0.10;0.08;;;;;;;16.26;100.00;99227.78;4991428;28;20109;-91
2023/07/27 05:45:31;;;;;;;0.25;0.10;;;;;;;16.32;100.00;99228.13;4992344;28;20462;-91
2023/07/27 05:47:57;;;;;;;0.43;0.00;;;;;;;16.34;100.00;99228.78;4974600;28;20480;-91
2023/07/27 05:50:22;;;;;;;1.42;0.00;;;;;;;16.32;100.00;99225.53;4974897;28;20042;-91
2023/07/27 05:52:47;;;;;;;0.00;0.00;;;;;;;16.30;100.00;99222.25;4974898;28;20027;-90
2023/07/27 05:55:13;;;;;;;0.00;0.00;;;;;;;16.24;100.00;99219.31;4991852;28;20084;-91
2023/07/27 05:57:40;;;;;;;1.75;0.10;;;;;;;16.22;100.00;99226.44;4991995;28;20508;-91
2023/07/27 06:00:06;;;;;;;0.00;0.00;;;;;;;16.34;100.00;99224.41;4992339;28;20026;-91
2023/07/27 06:02:32;;;;;;;0.00;0.00;;;;;;;16.38;100.00;99235.31;4992279;28;20030;-91
2023/07/27 06:04:57;;;;;;;1.55;0.10;;;;;;;16.41;100.00;99237.59;4992249;28;20023;-91
2023/07/27 06:07:23;;;;;;;0.00;0.00;;;;;;;16.38;100.00;99240.53;4993085;28;20396;-91
2023/07/27 06:09:48;;;;;;;0.00;0.00;;;;;;;16.39;100.00;99234.34;4991946;28;20396;-91
2023/07/27 06:12:13;;;;;;;0.00;0.00;;;;;;;16.42;100.00;99242.66;4993977;28;20033;-91
2023/07/27 06:14:39;;;;;;;3.20;0.10;;;;;;;16.53;100.00;99233.75;4995987;28;20113;-91
2023/07/27 06:17:05;;;;;;;0.00;0.00;;;;;;;16.64;100.00;99225.66;4995810;28;20054;-91
2023/07/27 06:19:30;;;;;;;0.52;0.00;;;;;;;16.64;100.00;99230.88;4995921;28;20057;-91
2023/07/27 06:21:55;;;;;;;0.00;0.00;;;;;;;16.71;100.00;99240.69;4995832;28;20034;-91
2023/07/27 06:24:21;;;;;;;0.00;0.00;;;;;;;16.63;100.00;99233.63;4994774;28;20030;-91
2023/07/27 06:26:46;;;;;;;1.85;0.00;;;;;;;16.61;100.00;99236.41;4978099;28;20050;-91
2023/07/27 06:29:11;;;;;;;0.00;0.00;;;;;;;16.66;100.00;99239.38;4995425;28;20026;-91
2023/07/27 06:31:37;;;;;;;0.10;0.00;;;;;;;16.67;100.00;99234.97;4978105;28;20033;-92
2023/07/27 06:34:02;;;;;;;0.00;0.00;;;;;;;16.86;100.00;99237.34;4978137;28;20030;-91
2023/07/27 06:36:27;;;;;;;0.40;0.10;;;;;;;16.83;100.00;99237.66;4995518;28;20033;-91
2023/07/27 06:38:53;;;;;;;0.08;0.00;;;;;;;16.91;100.00;99247.28;4977295;28;20113;-90
2023/07/27 06:41:24;;;;;;;0.10;0.00;;;;;;;16.87;100.00;99240.75;4995380;28;20018;-91
2023/07/27 06:43:49;;;;;;;0.00;0.00;;;;;;;16.79;100.00;99244.16;4993368;28;20161;-91
2023/07/27 06:46:15;;;;;;;0.35;0.00;;;;;;;16.79;100.00;99243.34;4994640;28;20113;-91
2023/07/27 06:48:40;;;;;;;0.00;0.00;;;;;;;16.82;100.00;99240.41;4995009;28;20480;-92
2023/07/27 06:51:06;;;;;;;2.35;0.00;;;;;;;16.78;100.00;99245.16;4977779;28;20036;-91
2023/07/27 06:53:31;;;;;;;0.17;0.00;;;;;;;16.86;100.00;99249.56;4976917;28;20045;-90
2023/07/27 06:55:56;;;;;;;0.75;0.00;;;;;;;16.84;100.00;99239.28;4994845;28;20034;-90
2023/07/27 06:58:22;;;;;;;0.82;0.00;;;;;;;16.96;100.00;99242.44;4994159;28;20023;-92
2023/07/27 07:00:47;;;;;;;0.00;0.00;;;;;;;17.05;100.00;99238.88;4994849;28;20138;-90
2023/07/27 07:03:12;;;;;;;5.38;0.00;;;;;;;17.03;100.00;99238.22;4994537;28;20098;-91
2023/07/27 07:05:38;;;;;;;3.10;0.00;;;;;;;17.06;100.00;99245.72;4994431;28;20108;-89
2023/07/27 07:08:03;;;;;;;0.63;0.00;;;;;;;16.98;100.00;99243.09;4996391;28;20476;-90
2023/07/27 07:10:29;;;;;;;0.00;0.00;;;;;;;17.04;100.00;99245.03;4994697;28;20113;-89
2023/07/27 07:12:54;;;;;;;0.00;0.00;;;;;;;17.06;100.00;99240.50;4989825;28;20108;-89
2023/07/27 07:15:19;;;;;;;0.00;0.00;;;;;;;17.08;100.00;99243.75;4993736;28;20037;-89
2023/07/27 07:17:45;;;;;;;1.35;0.00;;;;;;;17.12;100.00;99244.28;4993237;28;20026;-89
2023/07/27 07:20:10;;;;;;;0.20;0.00;;;;;;;17.19;100.00;99242.66;4993355;28;20033;-90
2023/07/27 07:22:37;;;;;;;0.15;0.00;;;;;;;17.28;100.00;99238.25;4992656;28;20054;-89
2023/07/27 07:25:02;;;;;;;0.22;0.00;;;;;;;17.28;100.00;99243.47;4992256;28;20880;-89
2023/07/27 07:27:28;;;;;;;0.47;0.10;;;;;;;17.23;100.00;99250.97;4993146;28;20146;-88
2023/07/27 07:29:54;;;;;;;0.10;0.05;;;;;;;17.30;100.00;99254.56;4993060;28;20101;-90
2023/07/27 07:32:19;;;;;;;0.05;0.00;;;;;;;17.31;100.00;99253.56;4992868;28;20026;-89
2023/07/27 07:34:45;;;;;;;1.35;0.17;;;;;;;17.30;100.00;99246.75;4991869;28;20113;-89
2023/07/27 07:37:10;;;;;;;6.88;0.10;;;;;;;17.31;100.00;99256.19;4991936;28;20086;-89
2023/07/27 07:39:36;;;;;;;3.10;0.28;;;;;;;17.37;100.00;99258.16;4992870;28;20038;-89
2023/07/27 07:42:01;;;;;;;0.20;0.00;;;;;;;17.39;100.00;99258.81;4991703;28;20034;-90
2023/07/27 07:44:27;;;;;;;2.90;0.15;;;;;;;17.41;100.00;99259.47;4992805;28;20027;-89
2023/07/27 07:46:52;;;;;;;1.45;0.00;;;;;;;17.53;100.00;99257.34;4992830;28;20371;-89
2023/07/27 07:49:17;;;;;;;0.35;0.10;;;;;;;17.63;100.00;99260.66;4992686;28;20014;-90
2023/07/27 07:51:43;;;;;;;2.95;0.00;;;;;;;17.64;100.00;99264.06;4992471;28;20057;-89
2023/07/27 07:54:09;;;;;;;1.02;0.10;;;;;;;17.67;100.00;99258.50;4992599;28;20113;-89
2023/07/27 07:56:35;;;;;;;1.40;0.13;;;;;;;17.69;100.00;99262.59;4992445;28;20034;-90
2023/07/27 07:59:01;;;;;;;0.63;0.08;;;;;;;17.62;100.00;99261.59;4992665;28;20109;-90
2023/07/27 08:01:26;;;;;;;0.20;0.08;;;;;;;17.68;100.00;99263.59;4992323;28;20445;-89
2023/07/27 08:03:52;;;;;;;0.80;0.10;;;;;;;17.76;100.00;99255.75;4992246;28;20520;-89
2023/07/27 08:06:17;;;;;;;0.25;0.00;;;;;;;17.79;100.00;99253.78;4992339;28;20424;-88
2023/07/27 08:08:43;;;;;;;1.33;0.10;;;;;;;17.86;100.00;99258.22;4991875;28;20435;-89
2023/07/27 08:11:08;;;;;;;0.90;0.20;;;;;;;17.96;100.00;99269.31;4992512;28;20026;-89
2023/07/27 08:13:34;;;;;;;0.20;0.00;;;;;;;17.91;100.00;99249.91;4993012;28;20077;-89
2023/07/27 08:16:00;;;;;;;1.95;0.10;;;;;;;17.94;100.00;99262.63;4992491;28;20022;-89
2023/07/27 08:18:25;;;;;;;1.30;0.10;;;;;;;17.87;100.00;99254.63;4991959;28;20033;-88
2023/07/27 08:20:58;;;;;;;1.27;0.20;;;;;;;17.81;100.00;99255.28;4992229;28;20446;-89
2023/07/27 08:23:24;;;;;;;1.52;0.20;;;;;;;17.86;100.00;99258.22;4992140;28;20040;-89
2023/07/27 08:25:49;;;;;;;1.92;0.10;;;;;;;17.83;100.00;99257.75;4991611;28;20469;-88
2023/07/27 08:28:16;;;;;;;2.85;0.15;;;;;;;17.92;100.00;99251.50;4992152;28;20519;-92
2023/07/27 08:30:41;;;;;;;1.08;0.20;;;;;;;17.94;100.00;99255.59;4974626;28;20026;-91
2023/07/27 08:33:08;;;;;;;2.63;0.22;;;;;;;17.95;100.00;99254.63;4991993;28;20500;-88
2023/07/27 08:35:33;;;;;;;1.80;0.73;;;;;;;17.93;100.00;99248.75;4987904;28;20030;-88
2023/07/27 08:37:58;;;;;;;1.20;0.45;;;;;;;18.00;100.00;99248.91;4991812;28;20039;-87
2023/07/27 08:40:24;;;;;;;2.30;0.38;;;;;;;18.01;100.00;99260.16;4991743;28;20030;-87
2023/07/27 08:42:49;;;;;;;1.95;0.30;;;;;;;18.03;100.00;99247.78;4991123;28;20088;-87
2023/07/27 08:45:20;;;;;;;2.50;0.30;;;;;;;18.25;100.00;99254.09;4991463;28;20034;-87
2023/07/27 08:47:47;;;;;;;1.98;0.22;;;;;;;18.31;100.00;99251.63;4991571;28;20038;-87
2023/07/27 08:50:13;;;;;;;2.15;0.50;;;;;;;18.33;100.00;99254.06;4991618;28;20026;-87
2023/07/27 08:52:39;;;;;;;3.15;0.30;;;;;;;18.27;100.00;99260.78;4991482;28;20448;-88
2023/07/27 08:55:05;;;;;;;2.53;0.30;;;;;;;18.13;100.00;99274.50;4991484;28;20057;-87
2023/07/27 08:57:31;;;;;;;2.05;0.20;;;;;;;18.11;100.00;99271.25;4991689;28;20014;-87
2023/07/27 08:59:57;;;;;;;2.05;0.47;;;;;;;17.99;100.00;99264.72;4991518;28;20022;-87
2023/07/27 09:02:22;;;;;;;2.03;0.20;;;;;;;18.01;100.00;99260.16;4992868;28;20018;-87
2023/07/27 09:04:47;;;;;;;1.17;0.30;;;;;;;18.08;100.00;99271.59;4989329;28;20038;-87
2023/07/27 09:07:13;;;;;;;2.25;0.45;;;;;;;18.23;100.00;99266.50;4990213;28;20026;-87
2023/07/27 09:09:39;;;;;;;2.28;0.50;;;;;;;18.35;100.00;99268.59;4992769;28;20469;-88
2023/07/27 09:12:06;;;;;;;7.55;0.63;;;;;;;18.42;100.00;99267.94;4975505;28;20030;-88
2023/07/27 09:14:35;;;;;;;8.27;0.68;;;;;;;18.52;100.00;99268.56;4992415;28;20022;-87
2023/07/27 09:17:01;;;;;;;1.55;0.50;;;;;;;18.70;100.00;99273.53;4992679;28;20030;-88
2023/07/27 09:19:32;;;;;;;4.50;1.27;;;;;;;18.80;100.00;99267.19;4975111;28;20058;-88
2023/07/27 09:21:57;;;;;;;2.20;0.33;;;;;;;18.96;100.00;99271.50;4992490;28;20022;-88
2023/07/27 09:24:26;;;;;;;4.88;0.60;;;;;;;19.26;100.00;99266.44;4992459;28;20032;-88
2023/07/27 09:26:53;;;;;;;1.80;0.38;;;;;;;19.49;100.00;99258.63;4992469;28;20023;-88
2023/07/27 09:29:20;;;;;;;2.53;0.65;;;;;;;19.65;100.00;99266.34;4992434;28;20033;-88
2023/07/27 09:31:51;;;;;;;1.92;0.40;;;;;;;19.64;100.00;99259.47;4992496;28;20022;-88
2023/07/27 09:34:21;;;;;;;2.40;0.50;;;;;;;19.27;100.00;99267.28;4992321;28;20058;-88
2023/07/27 09:36:47;;;;;;;6.18;0.60;;;;;;;19.29;100.00;99284.44;4992491;28;20053;-87
2023/07/27 09:39:14;;;;;;;1.88;0.52;;;;;;;19.16;100.00;99284.97;4992439;28;20469;-88
2023/07/27 09:41:45;;;;;;;4.80;0.50;;;;;;;19.05;100.00;99277.53;4974994;28;20023;-88
2023/07/27 09:44:21;;;;;;;2.60;0.32;;;;;;;19.13;100.00;99287.94;4992271;28;20033;-88
2023/07/27 09:46:47;;;;;;;1.77;0.38;;;;;;;19.18;100.00;99284.81;4993363;28;20030;-88
2023/07/27 09:49:16;;;;;;;4.47;0.55;;;;;;;19.21;100.00;99284.47;4996388;28;20559;-88
2023/07/27 09:51:42;;;;;;;1.75;0.40;;;;;;;19.22;100.00;99281.69;4996304;28;20032;-88
2023/07/27 09:54:08;;;;;;;2.58;0.50;;;;;;;19.35;100.00;99280.31;4995248;28;20027;-88
2023/07/27 09:56:34;;;;;;;6.00;0.40;;;;;;;19.07;100.00;99278.19;4996351;28;20027;-88
2023/07/27 09:59:00;;;;;;;3.15;0.40;;;;;;;19.00;100.00;99298.16;4978780;28;20019;-88
2023/07/27 10:01:26;;;;;;;1.23;0.45;;;;;;;19.08;100.00;99289.44;4996140;28;20026;-88
2023/07/27 10:03:57;;;;;;;2.70;0.40;;;;;;;19.28;100.00;99290.63;4996118;28;20033;-88
2023/07/27 10:06:24;;;;;;;5.50;0.60;;;;;;;19.14;100.00;99300.03;4996085;28;20105;-88
2023/07/27 10:08:50;;;;;;;1.90;0.20;;;;;;;19.09;100.00;99291.88;4996039;28;20275;-88
2023/07/27 10:11:15;;;;;;;3.92;0.32;;;;;;;19.12;100.00;99291.56;4996081;28;20027;-88
2023/07/27 10:13:43;;;;;;;2.08;0.60;;;;;;;19.29;100.00;99286.22;4995848;28;20022;-88
2023/07/27 10:16:11;;;;;;;3.92;0.60;;;;;;;19.42;100.00;99282.03;4978449;28;20041;-88
2023/07/27 10:18:45;;;;;;;2.53;0.45;;;;;;;19.55;100.00;99284.06;4996098;28;20129;-88
2023/07/27 10:21:29;;;;;;;3.15;0.47;;;;;;;19.84;100.00;99285.22;4995768;28;20388;-88
2023/07/27 10:24:01;;;;;;;3.70;0.40;;;;;;;19.95;100.00;99286.63;4995867;28;20416;-89
2023/07/27 10:26:46;;;;;;;2.65;0.40;;;;;;;19.89;100.00;99280.25;4995764;28;20030;-89
2023/07/27 10:29:17;;;;;;;2.38;0.57;;;;;;;20.00;100.00;99287.69;4995832;28;20037;-88
2023/07/27 10:31:44;;;;;;;5.28;0.47;;;;;;;20.36;100.00;99279.19;4995774;28;20380;-88
2023/07/27 10:34:15;;;;;;;4.90;0.43;;;;;;;20.79;100.00;99284.59;4995702;28;20037;-88
2023/07/27 10:36:47;;;;;;;1.33;0.30;;;;;;;20.81;100.00;99287.06;4995622;28;20388;-88
2023/07/27 10:39:15;;;;;;;3.33;0.40;;;;;;;20.97;100.00;99283.41;4978197;28;20030;-88
2023/07/27 10:41:56;;;;;;;2.63;0.40;;;;;;;20.87;100.00;99287.16;4978146;28;20057;-89
2023/07/27 10:44:21;;;;;;;1.83;0.40;;;;;;;20.69;100.00;99292.75;4995512;28;20030;-89
2023/07/27 10:46:47;;;;;;;1.40;0.20;;;;;;;20.94;100.00;99289.84;4995447;28;20080;-88
2023/07/27 10:49:16;;;;;;;3.05;0.60;;;;;;;20.87;100.00;99292.41;4995401;28;20105;-89
2023/07/27 10:51:44;;;;;;;1.98;0.65;;;;;;;21.27;100.00;99287.59;4977903;28;20018;-89
2023/07/27 10:54:10;;;;;;;2.08;0.47;;;;;;;21.44;100.00;99292.66;4977721;28;20484;-88
2023/07/27 10:56:35;;;;;;;2.83;0.35;;;;;;;21.24;100.00;99285.34;4977733;28;20124;-89
2023/07/27 10:59:01;;;;;;;3.80;0.60;;;;;;;21.31;100.00;99288.03;4995131;28;20027;-89
2023/07/27 11:01:29;;;;;;;2.67;0.50;;;;;;;20.91;100.00;99291.00;4995118;28;20072;-89
2023/07/27 11:03:56;;;;;;;3.97;0.60;;;;;;;20.90;100.00;99301.72;4995196;28;20493;-88
2023/07/27 11:06:21;;;;;;;3.17;0.30;;;;;;;20.99;100.00;99289.28;4995006;28;20492;-88
2023/07/27 11:08:47;;;;;;;5.13;1.00;;;;;;;20.71;100.00;99287.34;4977524;28;20037;-89
2023/07/27 11:11:16;;;;;;;4.30;0.40;;;;;;;20.93;100.00;99290.84;4995165;28;20026;-89
2023/07/27 11:13:42;;;;;;;2.95;0.40;;;;;;;20.67;100.00;99297.34;4995057;28;20026;-89
2023/07/27 11:16:07;;;;;;;2.22;0.30;;;;;;;20.35;100.00;99295.88;4977255;28;20042;-89
2023/07/27 11:18:32;;;;;;;2.45;0.60;;;;;;;20.29;100.00;99294.00;4994894;28;20030;-89
2023/07/27 11:20:58;;;;;;;2.92;0.45;;;;;;;20.22;100.00;99287.84;4994763;28;20420;-88
2023/07/27 11:23:23;;;;;;;7.05;0.50;;;;;;;20.24;100.00;99285.81;4995092;28;20026;-89